sensor_id;sensor_type;location;lat;lon;timestamp;P1;durP1;ratioP1;P2;durP2;ratioP2
5199;SDS011;2619;47.868;11.892;2022-08-19T00:00:05;4.63;;;3.90;;
5199;SDS011;2619;47.868;11.892;2022-08-19T00:02:34;4.10;;;3.43;;
5199;SDS011;2619;47.868;11.892;2022-08-19T00:05:01;4.07;;;3.67;;
5199;SDS011;2619;47.868;11.892;2022-08-19T00:07:28;4.10;;;3.70;;
5199;SDS011;2619;47.868;11.892;2022-08-19T00:09:53;3.90;;;3.43;;
5199;SDS011;2619;47.868;11.892;2022-08-19T00:12:19;4.53;;;4.00;;
5199;SDS011;2619;47.868;11.892;2022-08-19T00:14:45;3.53;;;3.20;;
5199;SDS011;2619;47.868;11.892;2022-08-19T00:17:11;4.03;;;3.63;;
5199;SDS011;2619;47.868;11.892;2022-08-19T00:19:37;8.97;;;3.90;;
5199;SDS011;2619;47.868;11.892;2022-08-19T00:22:03;4.27;;;3.80;;
5199;SDS011;2619;47.868;11.892;2022-08-19T00:24:30;3.80;;;3.50;;
5199;SDS011;2619;47.868;11.892;2022-08-19T00:26:56;3.57;;;3.27;;
5199;SDS011;2619;47.868;11.892;2022-08-19T00:29:23;4.23;;;3.83;;
5199;SDS011;2619;47.868;11.892;2022-08-19T00:31:50;4.50;;;3.70;;
5199;SDS011;2619;47.868;11.892;2022-08-19T00:34:19;4.00;;;3.33;;
5199;SDS011;2619;47.868;11.892;2022-08-19T00:36:46;5.30;;;3.50;;
5199;SDS011;2619;47.868;11.892;2022-08-19T00:39:12;3.87;;;3.47;;
5199;SDS011;2619;47.868;11.892;2022-08-19T00:41:38;3.97;;;3.57;;
5199;SDS011;2619;47.868;11.892;2022-08-19T00:44:06;6.67;;;3.60;;
5199;SDS011;2619;47.868;11.892;2022-08-19T00:46:38;3.93;;;3.23;;
5199;SDS011;2619;47.868;11.892;2022-08-19T00:49:08;4.03;;;3.63;;
5199;SDS011;2619;47.868;11.892;2022-08-19T00:51:39;3.80;;;3.23;;
5199;SDS011;2619;47.868;11.892;2022-08-19T00:54:07;3.53;;;3.23;;
5199;SDS011;2619;47.868;11.892;2022-08-19T00:56:34;4.33;;;3.23;;
5199;SDS011;2619;47.868;11.892;2022-08-19T00:59:00;3.83;;;3.20;;
5199;SDS011;2619;47.868;11.892;2022-08-19T01:01:27;3.60;;;2.87;;
5199;SDS011;2619;47.868;11.892;2022-08-19T01:03:52;3.50;;;3.20;;
5199;SDS011;2619;47.868;11.892;2022-08-19T01:06:18;3.00;;;2.67;;
5199;SDS011;2619;47.868;11.892;2022-08-19T01:08:44;4.23;;;3.43;;
5199;SDS011;2619;47.868;11.892;2022-08-19T01:11:09;3.00;;;2.40;;
5199;SDS011;2619;47.868;11.892;2022-08-19T01:13:37;3.23;;;2.93;;
5199;SDS011;2619;47.868;11.892;2022-08-19T01:16:04;3.30;;;2.50;;
5199;SDS011;2619;47.868;11.892;2022-08-19T01:18:32;3.30;;;2.40;;
5199;SDS011;2619;47.868;11.892;2022-08-19T01:21:05;3.40;;;2.33;;
5199;SDS011;2619;47.868;11.892;2022-08-19T01:23:35;2.47;;;2.00;;
5199;SDS011;2619;47.868;11.892;2022-08-19T01:26:12;2.77;;;2.07;;
5199;SDS011;2619;47.868;11.892;2022-08-19T01:28:40;3.00;;;2.30;;
5199;SDS011;2619;47.868;11.892;2022-08-19T01:31:12;3.13;;;2.10;;
5199;SDS011;2619;47.868;11.892;2022-08-19T01:33:40;3.77;;;2.67;;
5199;SDS011;2619;47.868;11.892;2022-08-19T01:36:14;2.90;;;2.60;;
5199;SDS011;2619;47.868;11.892;2022-08-19T01:38:47;3.03;;;2.60;;
5199;SDS011;2619;47.868;11.892;2022-08-19T01:41:13;3.47;;;2.70;;
5199;SDS011;2619;47.868;11.892;2022-08-19T01:43:39;4.53;;;2.57;;
5199;SDS011;2619;47.868;11.892;2022-08-19T01:46:05;3.60;;;3.00;;
5199;SDS011;2619;47.868;11.892;2022-08-19T01:48:36;3.50;;;3.10;;
5199;SDS011;2619;47.868;11.892;2022-08-19T01:51:06;5.10;;;3.23;;
5199;SDS011;2619;47.868;11.892;2022-08-19T01:53:33;3.60;;;3.10;;
5199;SDS011;2619;47.868;11.892;2022-08-19T01:55:59;3.97;;;2.73;;
5199;SDS011;2619;47.868;11.892;2022-08-19T01:58:27;4.10;;;3.40;;
5199;SDS011;2619;47.868;11.892;2022-08-19T02:00:58;4.20;;;3.20;;
5199;SDS011;2619;47.868;11.892;2022-08-19T02:03:23;3.80;;;3.40;;
5199;SDS011;2619;47.868;11.892;2022-08-19T02:05:54;3.83;;;2.90;;
5199;SDS011;2619;47.868;11.892;2022-08-19T02:08:21;4.53;;;2.80;;
5199;SDS011;2619;47.868;11.892;2022-08-19T02:10:46;4.00;;;2.93;;
5199;SDS011;2619;47.868;11.892;2022-08-19T02:13:13;3.90;;;3.30;;
5199;SDS011;2619;47.868;11.892;2022-08-19T02:15:39;3.33;;;2.67;;
5199;SDS011;2619;47.868;11.892;2022-08-19T02:18:05;3.33;;;3.03;;
5199;SDS011;2619;47.868;11.892;2022-08-19T02:20:33;3.57;;;2.90;;
5199;SDS011;2619;47.868;11.892;2022-08-19T02:22:58;2.80;;;2.43;;
5199;SDS011;2619;47.868;11.892;2022-08-19T02:25:26;3.43;;;3.00;;
5199;SDS011;2619;47.868;11.892;2022-08-19T02:27:52;3.63;;;2.70;;
5199;SDS011;2619;47.868;11.892;2022-08-19T02:30:19;3.97;;;3.17;;
5199;SDS011;2619;47.868;11.892;2022-08-19T02:32:45;3.67;;;3.20;;
5199;SDS011;2619;47.868;11.892;2022-08-19T02:35:12;2.90;;;2.40;;
5199;SDS011;2619;47.868;11.892;2022-08-19T02:37:39;3.37;;;2.93;;
5199;SDS011;2619;47.868;11.892;2022-08-19T02:40:24;3.13;;;2.53;;
5199;SDS011;2619;47.868;11.892;2022-08-19T02:42:49;3.50;;;3.20;;
5199;SDS011;2619;47.868;11.892;2022-08-19T02:45:15;4.47;;;3.00;;
5199;SDS011;2619;47.868;11.892;2022-08-19T02:47:41;4.10;;;3.17;;
5199;SDS011;2619;47.868;11.892;2022-08-19T02:50:07;3.40;;;3.03;;
5199;SDS011;2619;47.868;11.892;2022-08-19T02:52:34;3.00;;;2.47;;
5199;SDS011;2619;47.868;11.892;2022-08-19T02:55:00;3.37;;;2.97;;
5199;SDS011;2619;47.868;11.892;2022-08-19T02:57:26;3.67;;;2.90;;
5199;SDS011;2619;47.868;11.892;2022-08-19T02:59:52;2.90;;;2.57;;
5199;SDS011;2619;47.868;11.892;2022-08-19T03:02:18;3.70;;;2.73;;
5199;SDS011;2619;47.868;11.892;2022-08-19T03:04:44;3.27;;;2.40;;
5199;SDS011;2619;47.868;11.892;2022-08-19T03:07:12;3.50;;;2.60;;
5199;SDS011;2619;47.868;11.892;2022-08-19T03:09:39;3.63;;;2.90;;
5199;SDS011;2619;47.868;11.892;2022-08-19T03:12:07;3.70;;;3.00;;
5199;SDS011;2619;47.868;11.892;2022-08-19T03:14:33;2.93;;;2.40;;
5199;SDS011;2619;47.868;11.892;2022-08-19T03:17:00;4.73;;;2.57;;
5199;SDS011;2619;47.868;11.892;2022-08-19T03:19:26;2.73;;;2.33;;
5199;SDS011;2619;47.868;11.892;2022-08-19T03:21:52;2.80;;;2.33;;
5199;SDS011;2619;47.868;11.892;2022-08-19T03:24:18;3.00;;;2.53;;
5199;SDS011;2619;47.868;11.892;2022-08-19T03:26:46;2.77;;;2.33;;
5199;SDS011;2619;47.868;11.892;2022-08-19T03:29:22;3.70;;;2.40;;
5199;SDS011;2619;47.868;11.892;2022-08-19T03:31:49;3.77;;;2.87;;
5199;SDS011;2619;47.868;11.892;2022-08-19T03:34:21;3.40;;;2.53;;
5199;SDS011;2619;47.868;11.892;2022-08-19T03:36:53;2.80;;;2.13;;
5199;SDS011;2619;47.868;11.892;2022-08-19T03:39:20;3.50;;;2.63;;
5199;SDS011;2619;47.868;11.892;2022-08-19T03:41:47;2.43;;;1.93;;
5199;SDS011;2619;47.868;11.892;2022-08-19T03:44:16;3.03;;;2.30;;
5199;SDS011;2619;47.868;11.892;2022-08-19T03:46:45;3.30;;;2.60;;
5199;SDS011;2619;47.868;11.892;2022-08-19T03:49:13;3.10;;;2.20;;
5199;SDS011;2619;47.868;11.892;2022-08-19T03:51:39;3.20;;;2.33;;
5199;SDS011;2619;47.868;11.892;2022-08-19T03:54:05;3.50;;;2.83;;
5199;SDS011;2619;47.868;11.892;2022-08-19T03:56:35;3.77;;;2.90;;
5199;SDS011;2619;47.868;11.892;2022-08-19T03:59:02;3.60;;;2.53;;
5199;SDS011;2619;47.868;11.892;2022-08-19T04:01:29;3.07;;;2.40;;
5199;SDS011;2619;47.868;11.892;2022-08-19T04:03:55;2.50;;;2.03;;
5199;SDS011;2619;47.868;11.892;2022-08-19T04:06:27;2.80;;;2.30;;
5199;SDS011;2619;47.868;11.892;2022-08-19T04:08:58;3.87;;;2.20;;
5199;SDS011;2619;47.868;11.892;2022-08-19T04:11:26;3.07;;;2.33;;
5199;SDS011;2619;47.868;11.892;2022-08-19T04:13:53;2.40;;;2.10;;
5199;SDS011;2619;47.868;11.892;2022-08-19T04:16:20;3.57;;;2.30;;
5199;SDS011;2619;47.868;11.892;2022-08-19T04:18:48;3.40;;;2.30;;
5199;SDS011;2619;47.868;11.892;2022-08-19T04:21:19;2.60;;;2.20;;
5199;SDS011;2619;47.868;11.892;2022-08-19T04:23:46;3.90;;;2.50;;
5199;SDS011;2619;47.868;11.892;2022-08-19T04:26:17;3.50;;;3.03;;
5199;SDS011;2619;47.868;11.892;2022-08-19T04:28:45;2.90;;;2.30;;
5199;SDS011;2619;47.868;11.892;2022-08-19T04:31:21;3.30;;;2.50;;
5199;SDS011;2619;47.868;11.892;2022-08-19T04:33:52;2.90;;;2.37;;
5199;SDS011;2619;47.868;11.892;2022-08-19T04:36:21;3.90;;;2.63;;
5199;SDS011;2619;47.868;11.892;2022-08-19T04:38:48;4.83;;;3.40;;
5199;SDS011;2619;47.868;11.892;2022-08-19T04:41:15;3.27;;;2.60;;
5199;SDS011;2619;47.868;11.892;2022-08-19T04:43:59;3.47;;;2.30;;
5199;SDS011;2619;47.868;11.892;2022-08-19T04:46:27;4.10;;;3.13;;
5199;SDS011;2619;47.868;11.892;2022-08-19T04:48:55;5.07;;;2.83;;
5199;SDS011;2619;47.868;11.892;2022-08-19T04:51:22;6.40;;;2.83;;
5199;SDS011;2619;47.868;11.892;2022-08-19T04:53:48;2.83;;;2.30;;
5199;SDS011;2619;47.868;11.892;2022-08-19T04:56:16;3.17;;;2.77;;
5199;SDS011;2619;47.868;11.892;2022-08-19T04:58:42;3.10;;;2.40;;
5199;SDS011;2619;47.868;11.892;2022-08-19T05:01:11;3.03;;;2.57;;
5199;SDS011;2619;47.868;11.892;2022-08-19T05:03:43;9.10;;;3.17;;
5199;SDS011;2619;47.868;11.892;2022-08-19T05:06:10;8.43;;;3.57;;
5199;SDS011;2619;47.868;11.892;2022-08-19T05:08:39;5.23;;;3.13;;
5199;SDS011;2619;47.868;11.892;2022-08-19T05:11:09;6.17;;;2.73;;
5199;SDS011;2619;47.868;11.892;2022-08-19T05:13:40;5.60;;;2.77;;
5199;SDS011;2619;47.868;11.892;2022-08-19T05:16:08;3.73;;;2.73;;
5199;SDS011;2619;47.868;11.892;2022-08-19T05:18:35;4.17;;;3.00;;
5199;SDS011;2619;47.868;11.892;2022-08-19T05:21:19;4.53;;;2.57;;
5199;SDS011;2619;47.868;11.892;2022-08-19T05:24:05;4.10;;;2.90;;
5199;SDS011;2619;47.868;11.892;2022-08-19T05:26:35;8.23;;;3.00;;
5199;SDS011;2619;47.868;11.892;2022-08-19T05:29:02;4.33;;;2.70;;
5199;SDS011;2619;47.868;11.892;2022-08-19T05:31:28;4.17;;;3.57;;
5199;SDS011;2619;47.868;11.892;2022-08-19T05:33:54;3.40;;;2.93;;
5199;SDS011;2619;47.868;11.892;2022-08-19T05:36:20;4.17;;;3.40;;
5199;SDS011;2619;47.868;11.892;2022-08-19T05:38:46;7.83;;;3.73;;
5199;SDS011;2619;47.868;11.892;2022-08-19T05:41:13;4.47;;;3.07;;
5199;SDS011;2619;47.868;11.892;2022-08-19T05:43:40;4.00;;;2.73;;
5199;SDS011;2619;47.868;11.892;2022-08-19T05:46:06;4.77;;;3.33;;
5199;SDS011;2619;47.868;11.892;2022-08-19T05:48:33;6.60;;;3.80;;
5199;SDS011;2619;47.868;11.892;2022-08-19T05:51:04;5.90;;;3.83;;
5199;SDS011;2619;47.868;11.892;2022-08-19T05:53:31;3.50;;;3.17;;
5199;SDS011;2619;47.868;11.892;2022-08-19T05:56:02;5.80;;;3.60;;
5199;SDS011;2619;47.868;11.892;2022-08-19T05:58:33;4.30;;;3.43;;
5199;SDS011;2619;47.868;11.892;2022-08-19T06:01:00;4.07;;;3.67;;
5199;SDS011;2619;47.868;11.892;2022-08-19T06:03:29;3.70;;;3.17;;
5199;SDS011;2619;47.868;11.892;2022-08-19T06:05:56;4.27;;;3.87;;
5199;SDS011;2619;47.868;11.892;2022-08-19T06:08:24;3.47;;;3.00;;
5199;SDS011;2619;47.868;11.892;2022-08-19T06:10:50;3.80;;;3.40;;
5199;SDS011;2619;47.868;11.892;2022-08-19T06:13:15;3.63;;;2.97;;
5199;SDS011;2619;47.868;11.892;2022-08-19T06:15:42;3.80;;;3.27;;
5199;SDS011;2619;47.868;11.892;2022-08-19T06:18:09;4.27;;;3.37;;
5199;SDS011;2619;47.868;11.892;2022-08-19T06:20:34;4.33;;;3.73;;
5199;SDS011;2619;47.868;11.892;2022-08-19T06:23:00;4.40;;;3.23;;
5199;SDS011;2619;47.868;11.892;2022-08-19T06:25:26;6.33;;;4.10;;
5199;SDS011;2619;47.868;11.892;2022-08-19T06:27:51;4.63;;;4.10;;
5199;SDS011;2619;47.868;11.892;2022-08-19T06:30:18;4.60;;;4.20;;
5199;SDS011;2619;47.868;11.892;2022-08-19T06:32:44;4.20;;;3.80;;
5199;SDS011;2619;47.868;11.892;2022-08-19T06:35:09;5.47;;;3.73;;
5199;SDS011;2619;47.868;11.892;2022-08-19T06:37:36;4.43;;;4.03;;
5199;SDS011;2619;47.868;11.892;2022-08-19T06:40:02;5.17;;;4.30;;
5199;SDS011;2619;47.868;11.892;2022-08-19T06:42:28;5.07;;;4.30;;
5199;SDS011;2619;47.868;11.892;2022-08-19T06:44:55;5.30;;;4.50;;
5199;SDS011;2619;47.868;11.892;2022-08-19T06:47:21;6.50;;;4.27;;
5199;SDS011;2619;47.868;11.892;2022-08-19T06:49:47;5.63;;;4.27;;
5199;SDS011;2619;47.868;11.892;2022-08-19T06:52:12;5.03;;;3.90;;
5199;SDS011;2619;47.868;11.892;2022-08-19T06:54:39;4.30;;;3.90;;
5199;SDS011;2619;47.868;11.892;2022-08-19T06:57:06;4.90;;;4.40;;
5199;SDS011;2619;47.868;11.892;2022-08-19T06:59:34;5.93;;;4.37;;
5199;SDS011;2619;47.868;11.892;2022-08-19T07:02:02;5.73;;;5.13;;
5199;SDS011;2619;47.868;11.892;2022-08-19T07:04:31;7.30;;;6.33;;
5199;SDS011;2619;47.868;11.892;2022-08-19T07:06:58;4.80;;;4.30;;
5199;SDS011;2619;47.868;11.892;2022-08-19T07:09:32;5.43;;;4.93;;
5199;SDS011;2619;47.868;11.892;2022-08-19T07:11:59;4.77;;;4.27;;
5199;SDS011;2619;47.868;11.892;2022-08-19T07:14:26;5.80;;;4.27;;
5199;SDS011;2619;47.868;11.892;2022-08-19T07:16:53;5.07;;;4.30;;
5199;SDS011;2619;47.868;11.892;2022-08-19T07:19:21;4.67;;;3.40;;
5199;SDS011;2619;47.868;11.892;2022-08-19T07:21:49;5.10;;;4.10;;
5199;SDS011;2619;47.868;11.892;2022-08-19T07:24:17;3.90;;;3.30;;
5199;SDS011;2619;47.868;11.892;2022-08-19T07:26:45;6.37;;;3.87;;
5199;SDS011;2619;47.868;11.892;2022-08-19T07:29:11;4.60;;;3.67;;
5199;SDS011;2619;47.868;11.892;2022-08-19T07:31:37;4.80;;;4.30;;
5199;SDS011;2619;47.868;11.892;2022-08-19T07:34:05;4.93;;;4.37;;
5199;SDS011;2619;47.868;11.892;2022-08-19T07:36:33;4.70;;;4.00;;
5199;SDS011;2619;47.868;11.892;2022-08-19T07:39:05;4.70;;;3.77;;
5199;SDS011;2619;47.868;11.892;2022-08-19T07:41:34;4.97;;;4.30;;
5199;SDS011;2619;47.868;11.892;2022-08-19T07:44:02;4.10;;;3.60;;
5199;SDS011;2619;47.868;11.892;2022-08-19T07:46:30;7.40;;;4.80;;
5199;SDS011;2619;47.868;11.892;2022-08-19T07:48:57;5.70;;;4.03;;
5199;SDS011;2619;47.868;11.892;2022-08-19T07:51:23;5.03;;;4.53;;
5199;SDS011;2619;47.868;11.892;2022-08-19T07:53:49;4.80;;;3.63;;
5199;SDS011;2619;47.868;11.892;2022-08-19T07:56:16;4.73;;;4.00;;
5199;SDS011;2619;47.868;11.892;2022-08-19T07:58:44;4.50;;;4.00;;
5199;SDS011;2619;47.868;11.892;2022-08-19T08:01:12;4.60;;;4.10;;
5199;SDS011;2619;47.868;11.892;2022-08-19T08:03:40;5.70;;;4.50;;
5199;SDS011;2619;47.868;11.892;2022-08-19T08:06:25;4.93;;;3.77;;
5199;SDS011;2619;47.868;11.892;2022-08-19T08:09:09;3.77;;;3.30;;
5199;SDS011;2619;47.868;11.892;2022-08-19T08:11:36;3.27;;;2.97;;
5199;SDS011;2619;47.868;11.892;2022-08-19T08:14:26;4.80;;;3.80;;
5199;SDS011;2619;47.868;11.892;2022-08-19T08:16:54;4.10;;;3.47;;
5199;SDS011;2619;47.868;11.892;2022-08-19T08:19:21;4.30;;;3.90;;
5199;SDS011;2619;47.868;11.892;2022-08-19T08:21:49;5.17;;;3.90;;
5199;SDS011;2619;47.868;11.892;2022-08-19T08:24:15;5.53;;;4.00;;
5199;SDS011;2619;47.868;11.892;2022-08-19T08:26:42;4.30;;;3.90;;
5199;SDS011;2619;47.868;11.892;2022-08-19T08:29:09;4.00;;;3.60;;
5199;SDS011;2619;47.868;11.892;2022-08-19T08:31:37;3.80;;;3.43;;
5199;SDS011;2619;47.868;11.892;2022-08-19T08:34:04;4.33;;;3.90;;
5199;SDS011;2619;47.868;11.892;2022-08-19T08:36:29;4.40;;;4.00;;
5199;SDS011;2619;47.868;11.892;2022-08-19T08:38:58;3.67;;;3.23;;
5199;SDS011;2619;47.868;11.892;2022-08-19T08:41:28;4.37;;;3.80;;
5199;SDS011;2619;47.868;11.892;2022-08-19T08:43:58;4.07;;;3.60;;
5199;SDS011;2619;47.868;11.892;2022-08-19T08:46:30;4.43;;;4.03;;
5199;SDS011;2619;47.868;11.892;2022-08-19T08:51:37;5.00;;;4.60;;
5199;SDS011;2619;47.868;11.892;2022-08-19T08:54:08;5.27;;;4.23;;
5199;SDS011;2619;47.868;11.892;2022-08-19T08:56:40;4.43;;;4.03;;
5199;SDS011;2619;47.868;11.892;2022-08-19T08:59:30;4.97;;;4.53;;
5199;SDS011;2619;47.868;11.892;2022-08-19T09:01:57;4.83;;;4.40;;
5199;SDS011;2619;47.868;11.892;2022-08-19T09:04:23;4.80;;;4.40;;
5199;SDS011;2619;47.868;11.892;2022-08-19T09:09:38;6.10;;;4.27;;
5199;SDS011;2619;47.868;11.892;2022-08-19T09:17:24;5.40;;;4.90;;
5199;SDS011;2619;47.868;11.892;2022-08-19T09:20:14;4.93;;;4.53;;
5199;SDS011;2619;47.868;11.892;2022-08-19T09:22:40;5.60;;;5.10;;
5199;SDS011;2619;47.868;11.892;2022-08-19T09:25:11;5.47;;;4.97;;
5199;SDS011;2619;47.868;11.892;2022-08-19T09:27:38;6.33;;;5.73;;
5199;SDS011;2619;47.868;11.892;2022-08-19T09:30:05;5.90;;;5.40;;
5199;SDS011;2619;47.868;11.892;2022-08-19T09:32:33;7.50;;;5.67;;
5199;SDS011;2619;47.868;11.892;2022-08-19T09:34:58;6.80;;;6.20;;
5199;SDS011;2619;47.868;11.892;2022-08-19T09:37:25;7.50;;;6.80;;
5199;SDS011;2619;47.868;11.892;2022-08-19T09:39:51;7.43;;;5.90;;
5199;SDS011;2619;47.868;11.892;2022-08-19T09:42:17;7.53;;;6.67;;
5199;SDS011;2619;47.868;11.892;2022-08-19T09:44:43;6.87;;;6.27;;
5199;SDS011;2619;47.868;11.892;2022-08-19T09:47:09;7.60;;;6.90;;
5199;SDS011;2619;47.868;11.892;2022-08-19T09:49:36;8.07;;;7.27;;
5199;SDS011;2619;47.868;11.892;2022-08-19T09:52:04;6.83;;;6.10;;
5199;SDS011;2619;47.868;11.892;2022-08-19T09:54:30;5.80;;;5.30;;
5199;SDS011;2619;47.868;11.892;2022-08-19T09:56:57;6.17;;;5.57;;
5199;SDS011;2619;47.868;11.892;2022-08-19T09:59:25;6.80;;;6.20;;
5199;SDS011;2619;47.868;11.892;2022-08-19T10:01:51;7.87;;;7.07;;
5199;SDS011;2619;47.868;11.892;2022-08-19T10:04:17;7.30;;;6.60;;
5199;SDS011;2619;47.868;11.892;2022-08-19T10:06:44;7.07;;;6.47;;
5199;SDS011;2619;47.868;11.892;2022-08-19T10:09:12;6.97;;;6.30;;
5199;SDS011;2619;47.868;11.892;2022-08-19T10:11:40;7.47;;;6.73;;
5199;SDS011;2619;47.868;11.892;2022-08-19T10:14:06;8.47;;;7.70;;
5199;SDS011;2619;47.868;11.892;2022-08-19T10:16:32;7.47;;;6.50;;
5199;SDS011;2619;47.868;11.892;2022-08-19T10:19:00;6.50;;;5.80;;
5199;SDS011;2619;47.868;11.892;2022-08-19T10:21:27;6.90;;;6.20;;
5199;SDS011;2619;47.868;11.892;2022-08-19T10:23:56;8.90;;;6.67;;
5199;SDS011;2619;47.868;11.892;2022-08-19T10:26:24;5.93;;;5.43;;
5199;SDS011;2619;47.868;11.892;2022-08-19T10:28:55;8.00;;;7.20;;
5199;SDS011;2619;47.868;11.892;2022-08-19T10:31:23;8.10;;;7.30;;
5199;SDS011;2619;47.868;11.892;2022-08-19T10:33:51;6.20;;;5.57;;
5199;SDS011;2619;47.868;11.892;2022-08-19T10:36:24;5.37;;;4.70;;
5199;SDS011;2619;47.868;11.892;2022-08-19T10:38:56;6.50;;;5.60;;
5199;SDS011;2619;47.868;11.892;2022-08-19T10:41:24;5.83;;;5.23;;
5199;SDS011;2619;47.868;11.892;2022-08-19T10:43:52;4.60;;;4.20;;
5199;SDS011;2619;47.868;11.892;2022-08-19T10:46:21;4.73;;;4.20;;
5199;SDS011;2619;47.868;11.892;2022-08-19T10:48:48;3.70;;;3.40;;
5199;SDS011;2619;47.868;11.892;2022-08-19T10:51:15;4.67;;;4.27;;
5199;SDS011;2619;47.868;11.892;2022-08-19T10:53:59;4.40;;;3.90;;
5199;SDS011;2619;47.868;11.892;2022-08-19T10:56:26;3.97;;;3.57;;
5199;SDS011;2619;47.868;11.892;2022-08-19T10:59:11;3.20;;;2.90;;
5199;SDS011;2619;47.868;11.892;2022-08-19T11:01:39;3.30;;;3.00;;
5199;SDS011;2619;47.868;11.892;2022-08-19T11:04:07;3.60;;;3.10;;
5199;SDS011;2619;47.868;11.892;2022-08-19T11:06:35;3.67;;;3.37;;
5199;SDS011;2619;47.868;11.892;2022-08-19T11:09:06;3.60;;;3.30;;
5199;SDS011;2619;47.868;11.892;2022-08-19T11:11:33;4.60;;;4.20;;
5199;SDS011;2619;47.868;11.892;2022-08-19T11:14:05;5.70;;;4.50;;
5199;SDS011;2619;47.868;11.892;2022-08-19T11:16:31;5.00;;;3.80;;
5199;SDS011;2619;47.868;11.892;2022-08-19T11:18:58;6.70;;;4.50;;
5199;SDS011;2619;47.868;11.892;2022-08-19T11:23:58;4.00;;;3.60;;
5199;SDS011;2619;47.868;11.892;2022-08-19T11:26:33;4.50;;;4.10;;
5199;SDS011;2619;47.868;11.892;2022-08-19T11:28:59;4.70;;;3.77;;
5199;SDS011;2619;47.868;11.892;2022-08-19T11:31:26;3.70;;;3.13;;
5199;SDS011;2619;47.868;11.892;2022-08-19T11:33:59;4.00;;;3.60;;
5199;SDS011;2619;47.868;11.892;2022-08-19T11:36:27;4.00;;;3.60;;
5199;SDS011;2619;47.868;11.892;2022-08-19T11:38:54;3.83;;;3.43;;
5199;SDS011;2619;47.868;11.892;2022-08-19T11:41:20;4.20;;;3.47;;
5199;SDS011;2619;47.868;11.892;2022-08-19T11:43:53;3.90;;;3.50;;
5199;SDS011;2619;47.868;11.892;2022-08-19T11:46:20;4.20;;;3.50;;
5199;SDS011;2619;47.868;11.892;2022-08-19T11:48:47;3.10;;;2.80;;
5199;SDS011;2619;47.868;11.892;2022-08-19T11:51:16;3.40;;;3.10;;
5199;SDS011;2619;47.868;11.892;2022-08-19T11:53:44;3.07;;;2.77;;
5199;SDS011;2619;47.868;11.892;2022-08-19T11:56:10;3.40;;;2.50;;
5199;SDS011;2619;47.868;11.892;2022-08-19T11:58:38;3.00;;;2.70;;
5199;SDS011;2619;47.868;11.892;2022-08-19T12:01:10;4.10;;;3.30;;
5199;SDS011;2619;47.868;11.892;2022-08-19T12:03:37;4.40;;;3.70;;
5199;SDS011;2619;47.868;11.892;2022-08-19T12:06:04;4.27;;;3.87;;
5199;SDS011;2619;47.868;11.892;2022-08-19T12:08:31;3.33;;;3.03;;
5199;SDS011;2619;47.868;11.892;2022-08-19T12:10:56;3.50;;;3.10;;
5199;SDS011;2619;47.868;11.892;2022-08-19T12:13:22;3.53;;;3.23;;
5199;SDS011;2619;47.868;11.892;2022-08-19T12:15:47;3.30;;;3.00;;
5199;SDS011;2619;47.868;11.892;2022-08-19T12:18:13;7.10;;;3.40;;
5199;SDS011;2619;47.868;11.892;2022-08-19T12:20:39;3.60;;;3.07;;
5199;SDS011;2619;47.868;11.892;2022-08-19T12:23:07;4.57;;;3.90;;
5199;SDS011;2619;47.868;11.892;2022-08-19T12:25:34;3.50;;;3.20;;
5199;SDS011;2619;47.868;11.892;2022-08-19T12:28:13;3.07;;;2.60;;
5199;SDS011;2619;47.868;11.892;2022-08-19T12:30:38;4.20;;;2.60;;
5199;SDS011;2619;47.868;11.892;2022-08-19T12:33:04;3.30;;;2.90;;
5199;SDS011;2619;47.868;11.892;2022-08-19T12:35:30;3.33;;;3.03;;
5199;SDS011;2619;47.868;11.892;2022-08-19T12:37:55;3.77;;;3.00;;
5199;SDS011;2619;47.868;11.892;2022-08-19T12:40:21;3.03;;;2.70;;
5199;SDS011;2619;47.868;11.892;2022-08-19T12:42:46;3.30;;;2.83;;
5199;SDS011;2619;47.868;11.892;2022-08-19T12:45:14;4.40;;;2.60;;
5199;SDS011;2619;47.868;11.892;2022-08-19T12:47:40;2.83;;;2.50;;
5199;SDS011;2619;47.868;11.892;2022-08-19T12:50:06;3.50;;;2.80;;
5199;SDS011;2619;47.868;11.892;2022-08-19T12:52:33;4.00;;;3.70;;
5199;SDS011;2619;47.868;11.892;2022-08-19T12:55:01;3.80;;;3.50;;
5199;SDS011;2619;47.868;11.892;2022-08-19T12:57:28;4.70;;;3.87;;
5199;SDS011;2619;47.868;11.892;2022-08-19T12:59:54;3.47;;;3.17;;
5199;SDS011;2619;47.868;11.892;2022-08-19T13:02:19;3.30;;;2.70;;
5199;SDS011;2619;47.868;11.892;2022-08-19T13:04:46;3.60;;;2.80;;
5199;SDS011;2619;47.868;11.892;2022-08-19T13:07:11;3.00;;;2.70;;
5199;SDS011;2619;47.868;11.892;2022-08-19T13:09:37;3.27;;;2.60;;
5199;SDS011;2619;47.868;11.892;2022-08-19T13:12:06;2.73;;;2.43;;
5199;SDS011;2619;47.868;11.892;2022-08-19T13:14:37;2.80;;;2.37;;
5199;SDS011;2619;47.868;11.892;2022-08-19T13:17:05;3.10;;;2.40;;
5199;SDS011;2619;47.868;11.892;2022-08-19T13:19:31;3.60;;;2.60;;
5199;SDS011;2619;47.868;11.892;2022-08-19T13:21:56;2.90;;;2.00;;
5199;SDS011;2619;47.868;11.892;2022-08-19T13:24:23;3.87;;;2.20;;
5199;SDS011;2619;47.868;11.892;2022-08-19T13:26:48;2.67;;;2.17;;
5199;SDS011;2619;47.868;11.892;2022-08-19T13:29:14;2.60;;;2.20;;
5199;SDS011;2619;47.868;11.892;2022-08-19T13:31:58;4.47;;;2.87;;
5199;SDS011;2619;47.868;11.892;2022-08-19T13:34:42;3.37;;;2.87;;
5199;SDS011;2619;47.868;11.892;2022-08-19T13:37:08;3.07;;;2.50;;
5199;SDS011;2619;47.868;11.892;2022-08-19T13:39:34;4.00;;;3.60;;
5199;SDS011;2619;47.868;11.892;2022-08-19T13:42:01;4.67;;;4.20;;
5199;SDS011;2619;47.868;11.892;2022-08-19T13:44:29;4.40;;;4.00;;
5199;SDS011;2619;47.868;11.892;2022-08-19T13:46:55;4.37;;;3.97;;
5199;SDS011;2619;47.868;11.892;2022-08-19T13:49:30;4.43;;;4.00;;
5199;SDS011;2619;47.868;11.892;2022-08-19T13:51:56;6.03;;;3.80;;
5199;SDS011;2619;47.868;11.892;2022-08-19T13:54:22;4.43;;;4.03;;
5199;SDS011;2619;47.868;11.892;2022-08-19T13:56:47;3.93;;;3.40;;
5199;SDS011;2619;47.868;11.892;2022-08-19T13:59:13;4.70;;;4.20;;
5199;SDS011;2619;47.868;11.892;2022-08-19T14:01:39;4.97;;;4.57;;
5199;SDS011;2619;47.868;11.892;2022-08-19T14:04:06;6.03;;;4.43;;
5199;SDS011;2619;47.868;11.892;2022-08-19T14:06:32;4.17;;;3.87;;
5199;SDS011;2619;47.868;11.892;2022-08-19T14:08:58;4.63;;;4.10;;
5199;SDS011;2619;47.868;11.892;2022-08-19T14:11:24;6.83;;;4.60;;
5199;SDS011;2619;47.868;11.892;2022-08-19T14:13:50;7.47;;;4.00;;
5199;SDS011;2619;47.868;11.892;2022-08-19T14:16:16;4.93;;;3.10;;
5199;SDS011;2619;47.868;11.892;2022-08-19T14:18:42;4.63;;;2.70;;
5199;SDS011;2619;47.868;11.892;2022-08-19T14:21:11;3.40;;;2.40;;
5199;SDS011;2619;47.868;11.892;2022-08-19T14:23:40;3.43;;;2.90;;
5199;SDS011;2619;47.868;11.892;2022-08-19T14:26:10;3.90;;;2.70;;
5199;SDS011;2619;47.868;11.892;2022-08-19T14:28:38;2.97;;;1.53;;
5199;SDS011;2619;47.868;11.892;2022-08-19T14:31:06;4.10;;;2.33;;
5199;SDS011;2619;47.868;11.892;2022-08-19T14:33:35;3.50;;;2.20;;
5199;SDS011;2619;47.868;11.892;2022-08-19T14:36:01;3.30;;;2.10;;
5199;SDS011;2619;47.868;11.892;2022-08-19T14:38:28;13.03;;;2.53;;
5199;SDS011;2619;47.868;11.892;2022-08-19T14:40:56;2.80;;;1.80;;
5199;SDS011;2619;47.868;11.892;2022-08-19T14:43:33;2.37;;;1.47;;
5199;SDS011;2619;47.868;11.892;2022-08-19T14:45:59;3.57;;;1.50;;
5199;SDS011;2619;47.868;11.892;2022-08-19T14:48:24;4.87;;;1.70;;
5199;SDS011;2619;47.868;11.892;2022-08-19T14:50:51;2.67;;;1.70;;
5199;SDS011;2619;47.868;11.892;2022-08-19T14:53:17;2.27;;;1.47;;
5199;SDS011;2619;47.868;11.892;2022-08-19T14:55:43;2.70;;;1.37;;
5199;SDS011;2619;47.868;11.892;2022-08-19T14:58:10;2.20;;;1.30;;
5199;SDS011;2619;47.868;11.892;2022-08-19T15:00:36;1.70;;;0.90;;
5199;SDS011;2619;47.868;11.892;2022-08-19T15:03:01;4.00;;;1.40;;
5199;SDS011;2619;47.868;11.892;2022-08-19T15:05:27;1.80;;;1.10;;
5199;SDS011;2619;47.868;11.892;2022-08-19T15:07:52;2.20;;;1.20;;
5199;SDS011;2619;47.868;11.892;2022-08-19T15:10:19;2.00;;;1.20;;
5199;SDS011;2619;47.868;11.892;2022-08-19T15:12:48;2.00;;;1.37;;
5199;SDS011;2619;47.868;11.892;2022-08-19T15:15:14;2.23;;;1.20;;
5199;SDS011;2619;47.868;11.892;2022-08-19T15:17:42;2.63;;;1.20;;